createdAt,value
2017-12-11T10:32:50.432Z,22.38
2017-12-11T10:33:50.266Z,22.41
2017-12-11T10:34:50.258Z,22.36
2017-12-11T10:35:50.244Z,22.42
2017-12-11T10:36:50.236Z,22.44
2017-12-11T10:37:50.221Z,22.51
2017-12-11T10:38:50.224Z,22.54
2017-12-11T10:39:50.206Z,22.59
2017-12-11T10:40:50.197Z,22.67
2017-12-11T10:41:50.193Z,22.74
2017-12-11T10:42:50.191Z,22.69
2017-12-11T10:43:50.187Z,22.74
2017-12-11T10:44:50.184Z,22.85
2017-12-11T10:45:50.174Z,22.84
2017-12-11T10:46:50.165Z,22.94
2017-12-11T10:47:50.161Z,22.86
2017-12-11T10:48:50.151Z,22.91
2017-12-11T10:49:50.151Z,22.97
2017-12-11T10:50:50.152Z,22.97
2017-12-11T10:51:50.135Z,23.09
2017-12-11T10:52:50.116Z,23.12
2017-12-11T10:53:50.116Z,23.12
2017-12-11T10:54:50.128Z,23.16
2017-12-11T10:55:50.102Z,23.19
2017-12-11T10:56:50.105Z,23.31
2017-12-11T10:57:50.108Z,23.37
2017-12-11T10:58:50.111Z,23.35
2017-12-11T10:59:50.099Z,23.32
2017-12-11T11:00:50.081Z,23.39
2017-12-11T11:01:50.081Z,23.38
2017-12-11T11:02:50.073Z,23.45
2017-12-11T11:03:50.090Z,23.49
2017-12-11T11:04:50.088Z,23.47
2017-12-11T11:05:50.059Z,23.63
2017-12-11T11:06:50.072Z,23.62
2017-12-11T11:07:50.068Z,23.63
2017-12-11T11:08:50.050Z,23.64
2017-12-11T11:09:50.050Z,23.74
2017-12-11T11:10:50.042Z,23.89
2017-12-11T11:11:50.054Z,24.04
2017-12-11T11:12:50.051Z,24.21
2017-12-11T11:13:50.050Z,24.44
2017-12-11T11:14:50.038Z,24.52
2017-12-11T11:15:50.024Z,24.64
2017-12-11T11:16:50.032Z,24.63
2017-12-11T11:17:50.040Z,24.66
2017-12-11T11:18:50.022Z,24.92
2017-12-11T11:19:50.035Z,25.07
2017-12-11T11:20:50.026Z,25.14
2017-12-11T11:21:50.016Z,25.34
2017-12-11T11:22:50.027Z,25.34
2017-12-11T11:23:50.009Z,25.56
2017-12-11T11:24:50.007Z,25.61
2017-12-11T11:25:50.004Z,25.69
2017-12-11T11:26:50.012Z,25.81
2017-12-11T11:27:50.010Z,25.90
2017-12-11T11:28:50.014Z,25.97
2017-12-11T11:29:50.006Z,26.11
2017-12-11T11:30:50.004Z,26.23
2017-12-11T11:31:50.004Z,26.28
2017-12-11T11:32:50.001Z,26.44
2017-12-11T11:33:49.999Z,26.51
2017-12-11T11:34:49.999Z,26.60
2017-12-11T11:35:49.997Z,26.69
2017-12-11T11:36:50.001Z,26.61
2017-12-11T11:37:49.995Z,26.75
2017-12-11T11:38:49.996Z,26.97
2017-12-11T11:39:50.006Z,27.05
2017-12-11T11:40:50.005Z,27.05
2017-12-11T11:41:49.989Z,27.21
2017-12-11T11:42:49.998Z,27.49
2017-12-11T11:43:49.997Z,27.62
2017-12-11T11:44:49.996Z,27.63
2017-12-11T11:45:49.986Z,27.80
2017-12-11T11:46:49.991Z,27.87
2017-12-11T11:47:49.992Z,27.99
2017-12-11T11:48:49.988Z,27.98
2017-12-11T11:49:49.990Z,28.23
2017-12-11T11:50:49.987Z,28.21
2017-12-11T11:51:49.990Z,28.25
2017-12-11T11:52:49.994Z,28.42
2017-12-11T11:53:49.997Z,28.45
2017-12-11T11:54:49.995Z,28.39
2017-12-11T11:55:49.988Z,28.52
2017-12-11T11:56:49.987Z,28.74
2017-12-11T11:57:49.997Z,28.76
2017-12-11T11:58:49.992Z,28.94
2017-12-11T11:59:49.995Z,29.12
2017-12-11T12:00:49.990Z,29.12
2017-12-11T12:01:49.997Z,29.30
2017-12-11T12:02:49.993Z,29.42
2017-12-11T12:03:49.995Z,29.47
2017-12-11T12:04:49.992Z,29.63
2017-12-11T12:05:49.994Z,29.66
2017-12-11T12:06:49.998Z,29.60
2017-12-11T12:07:50.000Z,29.67
2017-12-11T12:08:50.005Z,29.71
2017-12-11T12:09:49.999Z,29.64
2017-12-11T12:10:50.006Z,29.74
2017-12-11T12:11:50.009Z,29.78
2017-12-11T12:12:49.996Z,29.76
2017-12-11T12:13:49.996Z,29.76
2017-12-11T12:14:49.998Z,29.89
2017-12-11T12:15:50.016Z,29.99
2017-12-11T12:16:49.995Z,29.95
2017-12-11T12:17:50.011Z,29.97
2017-12-11T12:18:50.012Z,30.16
2017-12-11T12:19:50.026Z,30.28
2017-12-11T12:20:50.010Z,30.57
2017-12-11T12:21:50.004Z,30.68
2017-12-11T12:22:50.030Z,30.90
2017-12-11T12:23:50.008Z,30.97
2017-12-11T12:24:50.032Z,31.05
2017-12-11T12:25:50.027Z,31.13
2017-12-11T12:26:50.036Z,31.13
2017-12-11T12:27:50.034Z,31.20
2017-12-11T12:28:50.041Z,31.45
2017-12-11T12:29:50.018Z,31.60
2017-12-11T12:30:50.029Z,31.78
2017-12-11T12:31:50.039Z,31.85
2017-12-11T12:32:50.036Z,31.54
2017-12-11T12:33:50.048Z,31.57
2017-12-11T12:34:50.040Z,31.71
2017-12-11T12:35:50.054Z,31.87
2017-12-11T12:36:50.061Z,32.03
2017-12-11T12:37:50.064Z,32.10
2017-12-11T12:38:50.052Z,31.94
2017-12-11T12:39:50.066Z,32.19
2017-12-11T12:40:50.064Z,32.28
2017-12-11T12:41:50.071Z,32.25
2017-12-11T12:42:50.061Z,32.34
2017-12-11T12:43:50.063Z,32.17
2017-12-11T12:44:50.066Z,32.16
2017-12-11T12:45:50.073Z,32.28
2017-12-11T12:46:50.089Z,32.40
2017-12-11T12:47:50.096Z,32.56
2017-12-11T12:48:50.092Z,32.72
2017-12-11T12:49:50.097Z,32.49
2017-12-11T12:50:50.100Z,32.63
2017-12-11T12:51:50.105Z,32.02
2017-12-11T12:52:50.109Z,31.90
2017-12-11T12:53:50.111Z,31.57
2017-12-11T12:54:50.120Z,31.60
2017-12-11T12:55:50.172Z,31.97
2017-12-11T12:56:50.117Z,32.22
2017-12-11T12:57:50.129Z,32.29
2017-12-11T12:58:50.132Z,32.50
2017-12-11T12:59:50.136Z,32.54
2017-12-11T13:00:50.142Z,32.68
2017-12-11T13:01:50.137Z,32.84
2017-12-11T13:02:50.145Z,33.22
2017-12-11T13:03:50.151Z,33.24
2017-12-11T13:04:50.151Z,33.41
2017-12-11T13:05:50.153Z,33.44
2017-12-11T13:06:50.158Z,33.53
2017-12-11T13:07:50.162Z,33.44
2017-12-11T13:08:50.167Z,33.52
2017-12-11T13:09:50.169Z,33.53
2017-12-11T13:10:50.178Z,33.63
2017-12-11T13:11:50.179Z,33.37
2017-12-11T13:12:50.187Z,33.31
2017-12-11T13:13:50.186Z,33.28
2017-12-11T13:14:50.195Z,33.37
2017-12-11T13:15:50.198Z,33.37
2017-12-11T13:16:50.197Z,33.40
2017-12-11T13:17:50.206Z,33.53
2017-12-11T13:18:50.206Z,33.81
2017-12-11T13:19:50.211Z,33.52
2017-12-11T13:20:50.211Z,33.52
2017-12-11T13:21:50.220Z,33.35
2017-12-11T13:22:50.226Z,33.56
2017-12-11T13:23:50.233Z,33.77
2017-12-11T13:24:50.228Z,33.94
2017-12-11T13:25:50.237Z,34.12
2017-12-11T13:26:50.241Z,34.16
2017-12-11T13:27:50.249Z,34.14
2017-12-11T13:28:50.255Z,34.14
2017-12-11T13:29:50.259Z,33.79
2017-12-11T13:30:50.259Z,33.40
2017-12-11T13:31:50.259Z,32.90
2017-12-11T13:32:50.268Z,32.61
2017-12-11T13:33:50.276Z,32.53
2017-12-11T13:34:50.276Z,32.36
2017-12-11T13:36:26.527Z,32.25
2017-12-11T13:36:50.259Z,32.02
2017-12-11T13:37:50.278Z,31.87
2017-12-11T13:38:50.951Z,31.94
2017-12-11T13:39:50.297Z,32.07
2017-12-11T13:40:50.301Z,32.03
2017-12-11T13:41:50.304Z,32.16
2017-12-11T13:42:50.306Z,32.47
2017-12-11T13:43:50.310Z,32.68
2017-12-11T13:44:50.314Z,33.09
2017-12-11T13:45:50.316Z,33.20
2017-12-11T13:46:50.319Z,33.17
2017-12-11T13:47:50.323Z,33.65
2017-12-11T13:48:50.328Z,33.49
2017-12-11T13:49:50.329Z,33.70
2017-12-11T13:50:50.334Z,33.77
2017-12-11T13:51:50.338Z,33.78
2017-12-11T13:52:50.342Z,33.96
2017-12-11T13:53:50.345Z,34.03
2017-12-11T13:54:50.352Z,33.96
2017-12-11T13:55:50.352Z,33.68
2017-12-11T13:56:50.510Z,34.03
2017-12-11T13:57:50.363Z,34.26
2017-12-11T13:58:50.367Z,34.49
2017-12-11T13:59:50.372Z,34.18
2017-12-11T14:00:50.379Z,33.81
2017-12-11T14:01:50.388Z,33.14
2017-12-11T14:02:50.386Z,32.78
2017-12-11T14:03:50.391Z,32.47
2017-12-11T14:04:50.397Z,32.09
2017-12-11T14:05:50.394Z,32.31
2017-12-11T14:06:50.403Z,32.31
2017-12-11T14:07:50.422Z,32.44
2017-12-11T14:08:50.411Z,32.36
2017-12-11T14:09:50.409Z,32.17
2017-12-11T14:10:50.418Z,31.62
2017-12-11T14:11:50.417Z,31.72
2017-12-11T14:12:50.427Z,31.69
2017-12-11T14:13:50.429Z,31.68
2017-12-11T14:14:50.432Z,31.50
2017-12-11T14:15:50.436Z,31.40
2017-12-11T14:16:50.440Z,31.34
2017-12-11T14:17:50.442Z,31.05
2017-12-11T14:18:50.445Z,31.13
2017-12-11T14:19:50.448Z,31.10
2017-12-11T14:20:50.451Z,31.07
2017-12-11T14:21:50.454Z,31.20
2017-12-11T14:22:50.451Z,30.82
2017-12-11T14:23:50.455Z,30.70
2017-12-11T14:24:50.462Z,30.70
2017-12-11T14:25:50.458Z,30.70
2017-12-11T14:26:50.466Z,30.78
2017-12-11T14:27:50.469Z,30.75
2017-12-11T14:28:50.471Z,30.73
2017-12-11T14:29:50.473Z,30.76
2017-12-11T14:30:50.476Z,30.72
2017-12-11T14:31:50.479Z,30.91
2017-12-11T14:32:50.484Z,31.20
2017-12-11T14:33:50.483Z,31.30
2017-12-11T14:34:50.485Z,31.52
2017-12-11T14:35:50.487Z,31.87
2017-12-11T14:36:50.490Z,31.72
2017-12-11T14:37:50.492Z,31.47
2017-12-11T14:38:50.545Z,31.31
2017-12-11T14:39:50.497Z,31.16
2017-12-11T14:40:50.500Z,30.93
2017-12-11T14:41:50.502Z,31.25
2017-12-11T14:42:50.505Z,31.27
2017-12-11T14:43:50.507Z,31.42
2017-12-11T14:44:50.511Z,31.38
2017-12-11T14:45:50.512Z,31.37
2017-12-11T14:46:50.515Z,31.50
2017-12-11T14:47:50.517Z,31.53
2017-12-11T14:48:50.520Z,31.60
2017-12-11T14:49:50.522Z,31.84
2017-12-11T14:50:50.525Z,31.76
2017-12-11T14:51:50.527Z,31.79
2017-12-11T14:52:50.531Z,31.99
2017-12-11T14:53:50.533Z,32.16
2017-12-11T14:54:50.536Z,32.36
2017-12-11T14:55:50.539Z,32.73
2017-12-11T14:56:50.543Z,33.07
2017-12-11T14:57:50.545Z,33.15
2017-12-11T14:58:50.548Z,33.53
2017-12-11T14:59:50.552Z,33.35
2017-12-11T15:00:50.555Z,33.00
2017-12-11T15:01:50.560Z,33.02
2017-12-11T15:02:50.568Z,33.00
2017-12-11T15:03:50.567Z,32.98
2017-12-11T15:04:50.572Z,32.93
2017-12-11T15:05:50.573Z,32.43
2017-12-11T15:06:50.578Z,32.27
2017-12-11T15:07:50.581Z,32.16
2017-12-11T15:08:50.585Z,31.94
2017-12-11T15:09:50.589Z,31.71
2017-12-11T15:10:50.592Z,31.57
2017-12-11T15:11:50.595Z,31.50
2017-12-11T15:12:50.599Z,31.31
2017-12-11T15:13:50.602Z,31.27
2017-12-11T15:14:50.604Z,31.19
2017-12-11T15:15:50.606Z,31.20
2017-12-11T15:16:50.610Z,31.15
2017-12-11T15:17:50.611Z,31.03
2017-12-11T15:18:50.615Z,30.90
2017-12-11T15:19:50.617Z,30.70
2017-12-11T15:20:50.620Z,30.60
2017-12-11T15:21:50.622Z,30.57
2017-12-11T15:22:50.624Z,30.48
2017-12-11T15:23:50.629Z,30.22
2017-12-11T15:24:50.629Z,30.01
2017-12-11T15:25:50.630Z,29.95
2017-12-11T15:26:50.634Z,29.70
2017-12-11T15:27:50.635Z,29.73
2017-12-11T15:28:50.639Z,29.67
2017-12-11T15:29:50.640Z,29.55
2017-12-11T15:30:50.640Z,29.44
2017-12-11T15:31:50.642Z,29.42
2017-12-11T15:32:50.644Z,29.30
2017-12-11T15:33:50.644Z,29.35
2017-12-11T15:34:50.646Z,29.23
2017-12-11T15:35:50.649Z,29.20
2017-12-11T15:36:50.650Z,29.12
2017-12-11T15:37:50.656Z,29.05
2017-12-11T15:38:50.651Z,29.10
2017-12-11T15:39:50.656Z,29.02
2017-12-11T15:40:50.654Z,29.03
2017-12-11T15:41:50.654Z,29.18
2017-12-11T15:42:50.655Z,29.10
2017-12-11T15:43:50.659Z,28.92
2017-12-11T15:44:50.660Z,29.00
2017-12-11T15:45:50.659Z,28.80
2017-12-11T15:46:50.660Z,28.72
2017-12-11T15:47:50.661Z,28.45
2017-12-11T15:48:50.663Z,28.40
2017-12-11T15:49:50.662Z,28.27
2017-12-11T15:50:50.664Z,27.93
2017-12-11T15:51:50.664Z,27.96
2017-12-11T15:52:50.665Z,27.88
2017-12-11T15:53:50.664Z,27.77
2017-12-11T15:54:50.669Z,27.74
2017-12-11T15:55:50.766Z,27.83
2017-12-11T15:56:50.672Z,27.76
2017-12-11T15:57:50.665Z,27.71
2017-12-11T15:58:50.666Z,27.87
2017-12-11T15:59:50.667Z,27.84
2017-12-11T16:00:50.668Z,27.90
2017-12-11T16:01:50.667Z,27.86
2017-12-11T16:02:50.669Z,27.84
2017-12-11T16:03:50.666Z,27.91
2017-12-11T16:04:50.668Z,27.93
2017-12-11T16:05:50.665Z,27.96
2017-12-11T16:06:50.666Z,28.02
2017-12-11T16:07:50.665Z,28.18
2017-12-11T16:08:50.666Z,28.08
2017-12-11T16:09:50.665Z,28.09
2017-12-11T16:10:50.665Z,28.08
2017-12-11T16:11:50.667Z,28.17
2017-12-11T16:12:50.666Z,28.24
2017-12-11T16:13:50.665Z,28.27
2017-12-11T16:14:50.661Z,28.28
2017-12-11T16:15:50.666Z,28.25
2017-12-11T16:16:50.666Z,28.21
2017-12-11T16:17:50.665Z,28.32
2017-12-11T16:18:50.666Z,28.30
2017-12-11T16:19:50.666Z,28.28
2017-12-11T16:20:50.666Z,28.13
2017-12-11T16:21:50.666Z,28.09
2017-12-11T16:22:50.667Z,27.98
2017-12-11T16:23:50.668Z,27.96
2017-12-11T16:24:50.668Z,28.02
2017-12-11T16:25:50.666Z,28.09
2017-12-11T16:26:50.667Z,28.08
2017-12-11T16:27:50.668Z,28.05
2017-12-11T16:28:50.767Z,27.90
2017-12-11T16:29:50.667Z,27.95
2017-12-11T16:30:50.667Z,27.98
2017-12-11T16:31:50.667Z,28.08
2017-12-11T16:32:50.668Z,28.15
2017-12-11T16:33:50.667Z,28.15
2017-12-11T16:34:50.667Z,28.05
2017-12-11T16:35:50.668Z,28.05
2017-12-11T16:36:50.668Z,27.96
2017-12-11T16:37:50.667Z,27.88
2017-12-11T16:38:50.668Z,27.80
2017-12-11T16:39:50.668Z,27.78
2017-12-11T16:40:50.669Z,27.45
2017-12-11T16:41:50.667Z,27.33
2017-12-11T16:42:50.666Z,27.13
2017-12-11T16:43:50.668Z,26.94
2017-12-11T16:44:50.668Z,26.88
2017-12-11T16:45:50.665Z,26.79
2017-12-11T16:46:50.666Z,26.69
2017-12-11T16:47:50.660Z,26.64
2017-12-11T16:48:50.666Z,26.57
2017-12-11T16:49:50.663Z,26.60
2017-12-11T16:50:50.670Z,26.59
2017-12-11T16:51:50.665Z,26.53
2017-12-11T16:52:50.663Z,26.68
2017-12-11T16:53:50.660Z,26.69
2017-12-11T16:54:50.658Z,26.50
2017-12-11T16:55:50.656Z,26.41
2017-12-11T16:56:50.657Z,26.12
2017-12-11T16:57:50.660Z,26.06
2017-12-11T16:58:50.955Z,25.94
2017-12-11T16:59:50.653Z,25.94
2017-12-11T17:00:50.657Z,25.82
2017-12-11T17:01:50.650Z,25.69
2017-12-11T17:02:50.649Z,25.71
2017-12-11T17:03:50.648Z,25.51
2017-12-11T17:04:50.649Z,25.53
2017-12-11T17:05:50.643Z,25.44
2017-12-11T17:06:50.643Z,25.41
2017-12-11T17:07:50.644Z,25.29
2017-12-11T17:08:50.638Z,25.30
2017-12-11T17:09:50.635Z,25.29
2017-12-11T17:10:50.634Z,25.38
2017-12-11T17:11:50.630Z,25.14
2017-12-11T17:12:50.630Z,25.01
2017-12-11T17:13:50.626Z,25.01
2017-12-11T17:14:50.625Z,24.77
2017-12-11T17:15:50.656Z,24.49
2017-12-11T17:16:50.621Z,24.29
2017-12-11T17:17:50.617Z,24.27
2017-12-11T17:18:50.610Z,24.36
2017-12-11T17:19:50.613Z,24.23
2017-12-11T17:20:50.615Z,24.26
2017-12-11T17:21:50.607Z,24.14
2017-12-11T17:22:50.604Z,24.12
2017-12-11T17:23:50.606Z,24.11
2017-12-11T17:24:50.600Z,24.08
2017-12-11T17:25:50.596Z,24.02
2017-12-11T17:26:50.592Z,23.96
2017-12-11T17:27:50.596Z,23.94
2017-12-11T17:28:50.588Z,23.87
2017-12-11T17:29:50.582Z,23.78
2017-12-11T17:30:50.579Z,23.75
2017-12-11T17:31:50.577Z,23.78
2017-12-11T17:32:50.584Z,23.74
2017-12-11T17:33:50.570Z,23.56
2017-12-11T17:34:50.568Z,23.52
2017-12-11T17:35:50.564Z,23.35
2017-12-11T17:36:50.560Z,23.23
2017-12-11T17:37:50.557Z,23.34
2017-12-11T17:38:50.553Z,23.37
2017-12-11T17:39:50.549Z,23.22
2017-12-11T17:40:50.546Z,23.22
2017-12-11T17:41:50.541Z,23.16
2017-12-11T17:42:50.538Z,23.09
2017-12-11T17:43:50.538Z,23.11
2017-12-11T17:44:50.535Z,22.96
2017-12-11T17:45:50.526Z,22.89
2017-12-11T17:46:50.524Z,22.78
2017-12-11T17:47:50.523Z,22.76
2017-12-11T17:48:50.515Z,22.78
2017-12-11T17:49:50.511Z,22.72
2017-12-11T17:50:50.507Z,22.75
2017-12-11T17:51:50.487Z,22.79
2017-12-11T17:52:50.484Z,22.64
2017-12-11T17:53:50.495Z,22.69
2017-12-11T17:54:50.491Z,22.66
2017-12-11T17:55:50.471Z,22.74
2017-12-11T17:56:50.468Z,22.70
2017-12-11T17:57:50.463Z,22.75
2017-12-11T17:58:50.473Z,22.67
2017-12-11T17:59:50.462Z,22.63
2017-12-11T18:00:50.457Z,22.66
2017-12-11T18:01:50.447Z,22.64
2017-12-11T18:02:50.442Z,22.67
2017-12-11T18:03:50.439Z,22.75
2017-12-11T18:04:50.434Z,22.67
2017-12-11T18:05:50.429Z,22.63
2017-12-11T18:06:50.425Z,22.61
2017-12-11T18:07:50.444Z,22.70
2017-12-11T18:08:50.420Z,22.63
2017-12-11T18:09:50.412Z,22.70
2017-12-11T18:10:50.428Z,22.74
2017-12-11T18:11:50.405Z,22.66
2017-12-11T18:12:50.416Z,22.66
2017-12-11T18:13:50.395Z,22.64
2017-12-11T18:14:50.408Z,22.66
2017-12-11T18:15:50.403Z,22.67
2017-12-11T18:16:50.390Z,22.78
2017-12-11T18:17:50.395Z,22.85
2017-12-11T18:18:50.394Z,22.81
2017-12-11T18:19:50.386Z,22.94
2017-12-11T18:20:50.382Z,22.86
2017-12-11T18:21:50.378Z,22.82
2017-12-11T18:22:50.358Z,22.81
2017-12-11T18:23:50.354Z,22.84
2017-12-11T18:24:50.369Z,22.75
2017-12-11T18:25:50.361Z,22.70
2017-12-11T18:26:50.363Z,22.63
2017-12-11T18:27:50.352Z,22.70
2017-12-11T18:28:50.350Z,22.63
2017-12-11T18:29:50.343Z,22.69
2017-12-11T18:30:50.341Z,22.66
2017-12-11T18:31:50.339Z,22.76
2017-12-11T18:32:50.332Z,22.78
2017-12-11T18:33:50.330Z,22.84
2017-12-11T18:34:50.326Z,22.82
2017-12-11T18:35:50.320Z,22.70
2017-12-11T18:36:50.317Z,22.78
2017-12-11T18:37:50.309Z,22.76
2017-12-11T18:38:50.311Z,22.85
2017-12-11T18:39:50.302Z,22.94
2017-12-11T18:40:50.297Z,22.86
2017-12-11T18:41:50.299Z,22.93
2017-12-11T18:42:50.294Z,23.06
2017-12-11T18:43:50.290Z,23.14
2017-12-11T18:44:50.284Z,23.07
2017-12-11T18:45:50.278Z,23.18
2017-12-11T18:46:50.271Z,23.26
2017-12-11T18:47:50.270Z,23.37
2017-12-11T18:48:50.266Z,23.44
2017-12-11T18:49:50.262Z,23.38
2017-12-11T18:50:50.259Z,23.41
2017-12-11T18:51:50.256Z,23.42
2017-12-11T18:52:50.248Z,23.49
2017-12-11T18:53:50.249Z,23.41
2017-12-11T18:54:50.244Z,23.47
2017-12-11T18:55:50.244Z,23.42
2017-12-11T18:56:50.234Z,23.45
2017-12-11T18:57:50.231Z,23.45
2017-12-11T18:58:50.232Z,23.47
2017-12-11T18:59:50.225Z,23.47
2017-12-11T19:00:50.218Z,23.56
2017-12-11T19:01:50.198Z,23.47
2017-12-11T19:02:50.196Z,23.52
2017-12-11T19:03:50.191Z,23.60
2017-12-11T19:04:50.191Z,23.59
2017-12-11T19:05:50.198Z,23.57
2017-12-11T19:06:50.190Z,23.52
2017-12-11T19:07:50.179Z,23.45
2017-12-11T19:08:50.173Z,23.50
2017-12-11T19:09:50.169Z,23.56
2017-12-11T19:10:50.165Z,23.53
2017-12-11T19:11:50.164Z,23.47
2017-12-11T19:12:50.158Z,23.53
2017-12-11T19:13:50.157Z,23.45
2017-12-11T19:14:50.149Z,23.45
2017-12-11T19:15:50.151Z,23.45
2017-12-11T19:16:50.143Z,23.32
2017-12-11T19:17:50.139Z,23.34
2017-12-11T19:18:50.135Z,23.37
2017-12-11T19:19:50.136Z,23.41
2017-12-11T19:20:50.132Z,23.38
2017-12-11T19:21:50.123Z,23.37
2017-12-11T19:22:50.119Z,23.41
2017-12-11T19:23:50.115Z,23.29
2017-12-11T19:24:50.117Z,23.34
2017-12-11T19:25:50.109Z,23.32
2017-12-11T19:26:50.110Z,23.35
2017-12-11T19:27:50.103Z,23.32
2017-12-11T19:28:50.096Z,23.31
2017-12-11T19:29:50.092Z,23.35
2017-12-11T19:30:50.091Z,23.41
2017-12-11T19:31:50.088Z,23.41
2017-12-11T19:32:50.081Z,23.29
2017-12-11T19:33:50.079Z,23.19
2017-12-11T19:34:50.073Z,23.25
2017-12-11T19:35:50.070Z,23.38
2017-12-11T19:36:50.095Z,23.34
2017-12-11T19:37:50.065Z,23.45
2017-12-11T19:38:50.059Z,23.37
2017-12-11T19:39:50.053Z,23.37
2017-12-11T19:40:50.051Z,23.21
2017-12-11T19:41:50.046Z,23.34
2017-12-11T19:42:50.041Z,23.22
2017-12-11T19:43:50.042Z,23.34
2017-12-11T19:44:50.038Z,23.29
2017-12-11T19:45:50.030Z,23.39
2017-12-11T19:46:50.029Z,23.37
2017-12-11T19:47:50.026Z,23.41
2017-12-11T19:48:50.020Z,23.35
2017-12-11T19:49:50.014Z,23.39
2017-12-11T19:50:50.014Z,23.45
2017-12-11T19:51:50.011Z,23.50
2017-12-11T19:52:50.005Z,23.42
2017-12-11T19:53:50.003Z,23.50
2017-12-11T19:54:49.995Z,23.54
2017-12-11T19:55:49.994Z,23.44
2017-12-11T19:56:49.987Z,23.39
2017-12-11T19:57:49.988Z,23.41
2017-12-11T19:58:49.979Z,23.31
2017-12-11T19:59:49.976Z,23.23
2017-12-11T20:00:49.977Z,23.07
2017-12-11T20:01:49.968Z,23.14
2017-12-11T20:02:49.963Z,23.09
2017-12-11T20:03:49.960Z,22.99
2017-12-11T20:04:49.956Z,22.93
2017-12-11T20:05:49.952Z,22.86
2017-12-11T20:06:49.952Z,22.86
2017-12-11T20:07:49.944Z,23.01
2017-12-11T20:08:49.940Z,23.03
2017-12-11T20:09:49.935Z,22.94
2017-12-11T20:10:49.932Z,22.99
2017-12-11T20:11:49.928Z,23.01
2017-12-11T20:12:49.923Z,23.09
2017-12-11T20:13:49.918Z,23.11
2017-12-11T20:14:49.919Z,23.15
2017-12-11T20:15:49.914Z,23.00
2017-12-11T20:16:49.907Z,23.12
2017-12-11T20:17:49.902Z,23.12
2017-12-11T20:18:49.898Z,23.06
2017-12-11T20:19:49.894Z,23.11
2017-12-11T20:20:49.895Z,23.15
2017-12-11T20:21:49.885Z,23.18
2017-12-11T20:22:49.883Z,23.15
2017-12-11T20:23:49.878Z,23.11
2017-12-11T20:24:49.878Z,23.06
2017-12-11T20:25:49.875Z,23.00
2017-12-11T20:26:49.865Z,22.99
2017-12-11T20:27:49.861Z,22.88
2017-12-11T20:28:49.857Z,22.94
2017-12-11T20:29:49.852Z,22.86
2017-12-11T20:30:49.881Z,22.81
2017-12-11T20:31:49.844Z,22.66
2017-12-11T20:32:49.840Z,22.67
2017-12-11T20:33:49.836Z,22.66
2017-12-11T20:34:49.832Z,22.59
2017-12-11T20:35:49.827Z,22.66
2017-12-11T20:36:49.827Z,22.63
2017-12-11T20:37:49.818Z,22.42
2017-12-11T20:38:49.817Z,22.46
2017-12-11T20:39:49.811Z,22.52
2017-12-11T20:40:49.806Z,22.49
2017-12-11T20:41:49.800Z,22.46
2017-12-11T20:42:49.796Z,22.51
2017-12-11T20:43:49.792Z,22.56
2017-12-11T20:44:49.789Z,22.56
2017-12-11T20:45:49.782Z,22.51
2017-12-11T20:46:49.778Z,22.54
2017-12-11T20:47:49.773Z,22.52
2017-12-11T20:48:49.785Z,22.46
2017-12-11T20:49:49.763Z,22.39
2017-12-11T20:50:49.759Z,22.30
2017-12-11T20:51:49.770Z,22.30
2017-12-11T20:52:49.767Z,22.30
2017-12-11T20:53:49.762Z,22.38
2017-12-11T20:54:49.757Z,22.30
2017-12-11T20:55:49.777Z,22.29
2017-12-11T20:56:49.732Z,22.11
2017-12-11T20:57:49.731Z,22.20
2017-12-11T20:58:49.722Z,22.01
2017-12-11T20:59:49.717Z,22.11
2017-12-11T21:00:49.729Z,22.12
2017-12-11T21:01:49.723Z,22.04
2017-12-11T21:02:49.719Z,22.14
2017-12-11T21:03:49.717Z,22.15
2017-12-11T21:04:49.710Z,22.19
2017-12-11T21:05:49.704Z,22.12
2017-12-11T21:06:49.698Z,22.15
2017-12-11T21:07:49.681Z,22.11
2017-12-11T21:08:49.674Z,22.19
2017-12-11T21:09:49.668Z,22.12
2017-12-11T21:10:49.664Z,22.15
2017-12-11T21:11:49.675Z,22.12
2017-12-11T21:12:49.655Z,22.17
2017-12-11T21:13:49.664Z,22.19
2017-12-11T21:14:49.645Z,22.12
2017-12-11T21:15:49.656Z,22.11
2017-12-11T21:16:49.651Z,22.14
2017-12-11T21:17:49.645Z,22.08
2017-12-11T21:18:49.629Z,22.02
2017-12-11T21:19:49.637Z,22.06
2017-12-11T21:20:49.616Z,21.96
2017-12-11T21:21:49.614Z,21.77
2017-12-11T21:22:49.623Z,21.77
2017-12-11T21:23:49.619Z,21.83
2017-12-11T21:24:49.623Z,21.82
2017-12-11T21:25:49.590Z,21.91
2017-12-11T21:26:49.604Z,21.91
2017-12-11T21:27:49.580Z,21.93
2017-12-11T21:28:49.594Z,21.91
2017-12-11T21:29:49.570Z,21.96
2017-12-11T21:30:49.584Z,21.89
2017-12-11T21:31:49.565Z,21.91
2017-12-11T21:32:49.556Z,21.90
2017-12-11T21:33:49.572Z,21.89
2017-12-11T21:34:49.550Z,21.86
2017-12-11T21:35:49.541Z,21.83
2017-12-11T21:36:49.553Z,21.74
2017-12-11T21:37:49.592Z,21.85
2017-12-11T21:38:49.525Z,21.82
2017-12-11T21:39:49.520Z,21.83
2017-12-11T21:40:49.537Z,21.83
2017-12-11T21:41:49.509Z,21.83
2017-12-11T21:42:49.523Z,21.74
2017-12-11T21:43:49.500Z,21.79
2017-12-11T21:44:49.495Z,21.77
2017-12-11T21:45:49.490Z,21.74
2017-12-11T21:46:49.503Z,21.67
2017-12-11T21:47:49.498Z,21.71
2017-12-11T21:48:49.493Z,21.67
2017-12-11T21:49:49.478Z,21.68
2017-12-11T21:50:49.485Z,21.68
2017-12-11T21:51:49.459Z,21.67
2017-12-11T21:52:49.453Z,21.73
2017-12-11T21:53:49.471Z,21.66
2017-12-11T21:54:49.461Z,21.67
2017-12-11T21:55:49.457Z,21.64
2017-12-11T21:56:49.433Z,21.63
2017-12-11T21:57:49.445Z,21.59
2017-12-11T21:58:49.422Z,21.66
2017-12-11T21:59:49.423Z,21.59
2017-12-11T22:00:49.431Z,21.63
2017-12-11T22:01:49.425Z,21.64
2017-12-11T22:02:49.406Z,21.59
2017-12-11T22:03:49.415Z,21.55
2017-12-11T22:04:49.410Z,21.55
2017-12-11T22:05:49.404Z,21.55
2017-12-11T22:06:49.399Z,21.66
2017-12-11T22:07:49.377Z,21.61
2017-12-11T22:08:49.389Z,21.58
2017-12-11T22:09:49.386Z,21.59
2017-12-11T22:10:49.381Z,21.59
2017-12-11T22:11:49.373Z,21.61
2017-12-11T22:12:49.353Z,21.58
2017-12-11T22:13:49.344Z,21.58
2017-12-11T22:14:49.357Z,21.61
2017-12-11T22:15:49.352Z,21.63
2017-12-11T22:16:49.332Z,21.67
2017-12-11T22:17:49.322Z,21.59
2017-12-11T22:18:49.317Z,21.56
2017-12-11T22:19:49.334Z,21.61
2017-12-11T22:20:49.326Z,21.53
2017-12-11T22:21:49.323Z,21.51
2017-12-11T22:22:49.315Z,21.49
2017-12-11T22:23:49.310Z,21.51
2017-12-11T22:24:49.287Z,21.55
2017-12-11T22:25:49.280Z,21.48
2017-12-11T22:26:49.275Z,21.55
2017-12-11T22:27:49.289Z,21.51
2017-12-11T22:28:49.265Z,21.49
2017-12-11T22:29:49.263Z,21.38
2017-12-11T22:30:49.253Z,21.37
2017-12-11T22:31:49.268Z,21.46
2017-12-11T22:32:49.266Z,21.49
2017-12-11T22:33:49.256Z,21.46
2017-12-11T22:34:49.251Z,21.51
2017-12-11T22:35:49.246Z,21.48
2017-12-11T22:36:49.241Z,21.49
2017-12-11T22:37:49.238Z,21.48
2017-12-11T22:38:49.233Z,21.42
2017-12-11T22:39:49.225Z,21.46
2017-12-11T22:40:49.220Z,21.46
2017-12-11T22:41:49.215Z,21.51
2017-12-11T22:42:49.208Z,21.49
2017-12-11T22:43:49.203Z,21.43
2017-12-11T22:44:49.198Z,21.43
2017-12-11T22:45:49.192Z,21.61
2017-12-11T22:46:49.188Z,21.49
2017-12-11T22:47:49.182Z,21.48
2017-12-11T22:48:49.177Z,21.49
2017-12-11T22:49:49.171Z,21.46
2017-12-11T22:50:49.166Z,21.40
2017-12-11T22:51:49.161Z,21.45
2017-12-11T22:52:49.155Z,21.31
2017-12-11T22:53:49.149Z,21.34
2017-12-11T22:54:49.144Z,21.31
2017-12-11T22:55:49.176Z,21.22
2017-12-11T22:56:49.134Z,21.18
2017-12-11T22:57:49.127Z,21.09
2017-12-11T22:58:49.126Z,21.01
2017-12-11T22:59:49.122Z,20.96
2017-12-11T23:00:49.112Z,20.98
2017-12-11T23:01:49.106Z,20.85
2017-12-11T23:02:49.103Z,20.76
2017-12-11T23:03:49.095Z,20.75
2017-12-11T23:04:49.089Z,20.64
2017-12-11T23:05:49.084Z,20.69
2017-12-11T23:06:49.077Z,20.54
2017-12-11T23:07:49.072Z,20.51
2017-12-11T23:08:49.066Z,20.60
2017-12-11T23:09:49.060Z,20.54
2017-12-11T23:10:49.068Z,20.54
2017-12-11T23:11:49.052Z,20.57
2017-12-11T23:12:49.046Z,20.53
2017-12-11T23:13:49.036Z,20.57
2017-12-11T23:14:49.034Z,20.48
2017-12-11T23:15:49.028Z,20.44
2017-12-11T23:16:49.018Z,20.46
2017-12-11T23:17:49.015Z,20.34
2017-12-11T23:18:49.011Z,20.41
2017-12-11T23:19:49.004Z,20.31
2017-12-11T23:20:48.998Z,20.44
2017-12-11T23:21:48.991Z,20.40
2017-12-11T23:22:48.982Z,20.30
2017-12-11T23:23:48.979Z,20.37
2017-12-11T23:24:48.973Z,20.34